Time;durP1;ratioP1;P1;durP2;ratioP2;P2;SDS_P1;SDS_P2;PMS_P1;PMS_P2;Temp;Humidity;BMP_temperature;BMP_pressure;BME280_temperature;BME280_humidity;BME280_pressure;Samples;Min_cycle;Max_cycle;Signal;HPM_P1;HPM_P2
2021/01/27 11:41:13;;;;;;;9.13;6.55;;;;;;;5.84;62.11;100315.38;6384219;22;20032;-92
2021/01/27 11:44:10;;;;;;;8.07;6.25;;;;;;;4.86;61.87;100130.53;6380862;22;20029;-93
2021/01/27 11:46:37;;;;;;;10.00;6.28;;;;;;;7.34;62.39;100537.44;6378116;22;20212;-93
2021/01/27 11:49:03;;;;;;;8.98;6.30;;;;;;;5.56;62.01;100239.53;6378374;22;20517;-93
2021/01/27 11:51:29;;;;;;;8.60;5.80;;;;;;;3.34;61.89;99895.28;6377736;22;20121;-93
2021/01/27 11:53:57;;;;;;;7.50;5.60;;;;;;;7.21;61.83;100488.13;6377019;22;20026;-92
2021/01/27 11:56:23;;;;;;;6.00;5.15;;;;;;;6.40;62.14;100346.84;6324049;22;20609;-93
2021/01/27 11:58:49;;;;;;;6.32;5.07;;;;;;;7.46;62.04;100505.31;6375150;22;20018;-93
2021/01/27 12:01:16;;;;;;;10.25;5.63;;;;;;;6.75;62.09;100392.75;6322720;22;20047;-93
2021/01/27 12:03:57;;;;;;;8.68;5.03;;;;;;;7.12;61.70;100424.63;6374831;22;20481;-94
2021/01/27 12:06:27;;;;;;;6.65;5.18;;;;;;;7.44;61.38;100475.16;6317071;22;20021;-93
2021/01/27 12:08:53;;;;;;;6.75;5.13;;;;;;;7.58;61.69;100491.34;6344352;22;20041;-92
2021/01/27 12:11:19;;;;;;;7.43;5.38;;;;;;;7.28;61.31;100429.47;6343744;22;20020;-92
2021/01/27 12:13:47;;;;;;;6.47;4.85;;;;;;;5.96;61.15;100218.53;6343528;22;20026;-93
2021/01/27 12:16:15;;;;;;;8.00;5.20;;;;;;;7.47;61.34;100441.09;6370577;22;20018;-93
2021/01/27 12:18:42;;;;;;;5.40;4.85;;;;;;;7.35;60.54;100412.47;6343720;22;20101;-93
2021/01/27 12:21:09;;;;;;;6.95;4.95;;;;;;;4.99;60.45;100035.44;6343712;22;20025;-92
2021/01/27 12:23:35;;;;;;;6.20;4.72;;;;;;;7.54;60.63;100429.28;6343011;22;20438;-93
2021/01/27 12:26:02;;;;;;;6.25;4.72;;;;;;;4.16;60.43;99891.25;6343477;22;20018;-93
2021/01/27 12:28:28;;;;;;;5.60;4.55;;;;;;;7.38;60.73;100409.63;6342213;22;20449;-92
2021/01/27 12:30:54;;;;;;;5.15;4.18;;;;;;;4.66;59.86;99977.38;6341941;22;20034;-92
2021/01/27 12:33:21;;;;;;;5.50;4.05;;;;;;;7.64;59.85;100438.00;6341702;22;20029;-92
2021/01/27 12:35:47;;;;;;;4.57;3.85;;;;;;;7.49;60.10;100432.22;6342290;22;20019;-92
2021/01/27 12:38:14;;;;;;;5.13;3.80;;;;;;;5.21;59.77;100052.84;6341661;22;20097;-93
2021/01/27 12:40:40;;;;;;;4.93;4.15;;;;;;;7.83;60.42;100466.88;6340812;22;20018;-93
2021/01/27 12:43:06;;;;;;;5.70;4.10;;;;;;;5.59;59.62;100116.59;6338567;22;20026;-94
2021/01/27 12:45:32;;;;;;;8.40;3.65;;;;;;;6.26;59.53;100206.75;6339808;22;20025;-93
2021/01/27 12:47:59;;;;;;;4.38;3.42;;;;;;;6.16;59.60;100200.63;6340239;22;20113;-93
2021/01/27 12:50:25;;;;;;;5.05;3.90;;;;;;;4.51;59.84;99923.28;6339239;22;20018;-93
2021/01/27 12:52:51;;;;;;;3.97;3.33;;;;;;;5.77;59.57;100142.94;6340096;22;20018;-93
2021/01/27 12:55:19;;;;;;;3.38;3.08;;;;;;;4.24;58.96;99870.00;6340386;22;20079;-93
2021/01/27 12:57:46;;;;;;;3.22;2.83;;;;;;;3.92;58.96;99823.16;6339122;22;20401;-91
2021/01/27 13:00:22;;;;;;;4.00;3.05;;;;;;;4.39;58.77;99852.50;6336354;22;20488;-92
2021/01/27 13:02:52;;;;;;;;;;;;;;;8.16;60.14;100440.91;6339466;22;20075;-93
2021/01/27 13:05:19;;;;;;;3.70;2.53;;;;;;;7.74;59.05;100414.69;6339547;22;20010;-92
2021/01/27 13:07:45;;;;;;;5.32;2.70;;;;;;;7.82;58.94;100428.78;6338867;22;20450;-92
2021/01/27 13:10:12;;;;;;;3.17;2.58;;;;;;;7.81;58.84;100427.13;6339459;22;20041;-92
2021/01/27 13:12:39;;;;;;;3.50;2.70;;;;;;;7.91;58.96;100448.06;6367268;22;20411;-92
2021/01/27 13:15:09;;;;;;;3.75;2.60;;;;;;;7.75;58.56;100411.97;6340688;22;20023;-92
2021/01/27 13:17:42;;;;;;;3.00;2.70;;;;;;;7.90;58.74;100448.16;6344242;22;20030;-92
2021/01/27 13:20:13;;;;;;;3.05;2.63;;;;;;;7.89;58.75;100443.91;6344300;22;20014;-92
2021/01/27 13:22:39;;;;;;;3.50;2.95;;;;;;;7.65;58.70;100410.19;6342262;22;20438;-91
2021/01/27 13:25:07;;;;;;;3.38;2.70;;;;;;;7.86;58.89;100438.94;6343861;22;20022;-93
2021/01/27 13:27:46;;;;;;;3.53;3.22;;;;;;;7.93;58.33;100427.94;6345837;22;20029;-92
2021/01/27 13:30:13;;;;;;;3.25;2.90;;;;;;;7.37;58.07;100358.56;6343747;22;20019;-92
2021/01/27 13:32:54;;;;;;;3.67;2.65;;;;;;;7.81;58.74;100427.13;6345871;22;20056;-93
2021/01/27 13:35:44;;;;;;;3.75;2.70;;;;;;;7.23;58.06;100317.16;6343628;22;20438;-93
2021/01/27 13:38:13;;;;;;;3.53;2.58;;;;;;;7.28;58.25;100350.63;6343842;22;20057;-92
2021/01/27 13:40:39;;;;;;;3.00;2.70;;;;;;;7.26;58.48;100339.50;6343746;22;20064;-92
2021/01/27 13:43:06;;;;;;;3.33;2.88;;;;;;;7.54;58.95;100375.44;6342981;22;20030;-93
2021/01/27 13:45:46;;;;;;;3.72;2.97;;;;;;;7.79;58.79;100407.38;6346231;22;20022;-92
2021/01/27 13:48:20;;;;;;;3.95;2.92;;;;;;;6.55;58.46;100221.94;6344576;22;20134;-92
2021/01/27 13:50:47;;;;;;;3.13;2.50;;;;;;;7.53;58.57;100372.94;6342981;22;20446;-93
2021/01/27 13:53:14;;;;;;;3.80;2.63;;;;;;;7.76;59.09;100399.78;6370505;22;20097;-92
2021/01/27 13:55:45;;;;;;;3.15;2.53;;;;;;;7.86;58.35;100389.47;6342816;22;20056;-91
2021/01/27 13:58:12;;;;;;;3.08;2.40;;;;;;;7.75;58.67;100395.53;6342689;22;20385;-92
2021/01/27 14:00:39;;;;;;;3.58;2.75;;;;;;;7.74;58.54;100399.91;6344122;22;20105;-92
2021/01/27 14:03:05;;;;;;;2.90;2.60;;;;;;;7.64;58.43;100383.34;6344411;22;20108;-92
2021/01/27 14:05:46;;;;;;;4.75;3.20;;;;;;;7.52;58.59;100364.31;6347336;22;20025;-92
2021/01/27 14:08:12;;;;;;;3.53;2.85;;;;;;;7.73;58.49;100403.47;6346400;22;20023;-92
2021/01/27 14:10:54;;;;;;;2.42;2.22;;;;;;;7.78;58.68;100401.31;6349084;22;20015;-93
2021/01/27 14:13:35;;;;;;;3.70;2.50;;;;;;;7.60;58.92;100380.16;6325472;22;20018;-93
2021/01/27 14:16:01;;;;;;;5.45;2.25;;;;;;;7.63;58.73;100375.69;6345905;22;20022;-92
2021/01/27 14:18:27;;;;;;;3.53;2.53;;;;;;;4.47;58.04;99865.72;6344921;22;20026;-92
2021/01/27 14:20:53;;;;;;;3.22;2.70;;;;;;;7.68;58.44;100368.34;6346677;22;20017;-92
2021/01/27 14:23:19;;;;;;;3.47;2.60;;;;;;;6.00;58.34;100095.34;6345331;22;20022;-91
2021/01/27 14:25:45;;;;;;;3.42;2.70;;;;;;;3.62;58.09;99718.41;6373327;22;20026;-92
2021/01/27 14:28:12;;;;;;;3.88;2.63;;;;;;;7.58;58.34;100344.78;6345034;22;20062;-92
2021/01/27 14:30:48;;;;;;;2.60;2.40;;;;;;;4.20;58.00;99796.91;6343898;22;20018;-92
2021/01/27 14:33:16;;;;;;;3.17;2.70;;;;;;;5.10;58.55;99957.72;6318958;22;20043;-92
2021/01/27 14:35:43;;;;;;;3.28;2.70;;;;;;;6.07;57.83;100105.25;6343868;22;20043;-92
2021/01/27 14:38:14;;;;;;;3.83;2.65;;;;;;;7.50;58.75;100339.38;6347412;22;20030;-92
2021/01/27 14:40:41;;;;;;;3.88;2.60;;;;;;;7.37;58.69;100318.66;6319884;22;20014;-92
2021/01/27 14:43:27;;;;;;;3.03;2.40;;;;;;;7.33;58.45;100306.88;6345540;22;20029;-92
2021/01/27 14:45:53;;;;;;;3.63;2.72;;;;;;;5.72;58.41;100057.66;6345439;22;20014;-92
2021/01/27 14:48:34;;;;;;;3.00;2.28;;;;;;;6.05;58.16;100107.97;6347726;22;20113;-92
2021/01/27 14:51:04;;;;;;;4.07;3.00;;;;;;;7.00;58.79;100260.91;6345906;22;20045;-92
2021/01/27 14:53:30;;;;;;;3.80;3.00;;;;;;;7.43;58.50;100333.81;6345446;22;20078;-92
2021/01/27 14:55:56;;;;;;;2.70;2.50;;;;;;;7.64;58.05;100359.91;6344717;22;20029;-92
2021/01/27 14:58:22;;;;;;;3.08;2.80;;;;;;;7.57;58.33;100362.19;6317900;22;20029;-92
2021/01/27 15:00:49;;;;;;;3.00;2.65;;;;;;;7.64;58.58;100359.91;6341418;22;20089;-92
2021/01/27 15:03:24;;;;;;;3.50;3.10;;;;;;;7.10;58.30;100270.47;6319405;22;20087;-92
2021/01/27 15:05:50;;;;;;;4.15;2.60;;;;;;;7.63;58.50;100358.28;6342599;22;20106;-93
2021/01/27 15:08:16;;;;;;;4.25;2.90;;;;;;;6.30;58.35;100151.06;6340697;22;20097;-92
2021/01/27 15:10:45;;;;;;;3.05;2.65;;;;;;;6.70;58.36;100208.56;6342749;22;20094;-92
2021/01/27 15:13:25;;;;;;;3.72;3.03;;;;;;;7.60;58.67;100345.50;6343818;22;20019;-91
2021/01/27 15:15:57;;;;;;;3.10;2.60;;;;;;;7.65;58.80;100350.34;6341735;22;20469;-93
2021/01/27 15:18:31;;;;;;;3.35;2.80;;;;;;;5.43;58.21;100013.19;6320098;22;20026;-92
2021/01/27 15:21:12;;;;;;;4.22;2.53;;;;;;;7.56;58.40;100355.31;6346188;22;20018;-92
2021/01/27 15:23:52;;;;;;;3.30;2.65;;;;;;;7.45;58.46;100341.50;6321383;22;20048;-92
2021/01/27 15:26:18;;;;;;;4.05;2.53;;;;;;;7.33;58.29;100348.50;6316144;22;20015;-91
2021/01/27 15:28:45;;;;;;;3.20;2.50;;;;;;;5.08;57.82;99980.34;6371423;22;20288;-92
2021/01/27 15:31:11;;;;;;;3.30;2.47;;;;;;;5.77;58.51;100091.06;6317111;22;20022;-92
2021/01/27 15:33:37;;;;;;;3.28;2.42;;;;;;;5.70;58.39;100066.50;6343978;22;20337;-93
2021/01/27 15:36:04;;;;;;;2.85;2.30;;;;;;;3.79;58.20;99772.28;6343097;22;20122;-92
2021/01/27 15:38:30;;;;;;;2.83;2.53;;;;;;;5.67;58.46;100090.09;6342279;22;20327;-92
2021/01/27 15:40:57;;;;;;;2.53;2.30;;;;;;;6.44;58.96;100220.97;6343154;22;20025;-92
2021/01/27 15:43:23;;;;;;;3.15;2.30;;;;;;;5.01;58.25;99970.53;6342671;22;20453;-92
2021/01/27 15:46:03;;;;;;;4.20;2.50;;;;;;;7.36;58.74;100351.66;6346282;22;20061;-92
2021/01/27 15:48:44;;;;;;;3.25;2.22;;;;;;;5.56;58.59;100065.75;6343939;22;20018;-92
2021/01/27 15:51:25;;;;;;;2.50;2.15;;;;;;;5.76;58.36;100123.97;6343799;22;20079;-92
2021/01/27 15:54:08;;;;;;;2.35;2.15;;;;;;;7.53;59.26;100375.56;6322668;22;20034;-92
2021/01/27 15:56:38;;;;;;;2.50;2.30;;;;;;;7.47;59.29;100371.66;6320071;22;20026;-92
2021/01/27 15:59:18;;;;;;;3.10;2.40;;;;;;;7.44;59.06;100371.06;6343727;22;20365;-92
2021/01/27 16:02:00;;;;;;;2.85;2.08;;;;;;;6.70;58.97;100270.94;6345519;22;20010;-92
2021/01/27 16:04:26;;;;;;;2.60;2.40;;;;;;;7.24;59.15;100346.59;6343525;22;20030;-92
2021/01/27 16:06:53;;;;;;;2.78;2.30;;;;;;;6.86;58.92;100296.59;6343383;22;20030;-91
2021/01/27 16:09:34;;;;;;;2.58;2.38;;;;;;;7.39;59.80;100381.81;6322864;22;20014;-93
2021/01/27 16:12:14;;;;;;;3.13;2.50;;;;;;;7.37;59.31;100379.34;6372005;22;20091;-93
2021/01/27 16:14:41;;;;;;;3.15;2.47;;;;;;;5.76;58.84;100112.72;6345235;22;20111;-92
2021/01/27 16:17:31;;;;;;;2.80;2.47;;;;;;;7.00;59.20;100311.13;6343968;22;20057;-92
2021/01/27 16:20:12;;;;;;;2.65;2.45;;;;;;;6.52;59.40;100242.94;6344928;22;20105;-92
2021/01/27 17:07:06;;;;;;;3.78;3.20;;;;;;;3.09;59.80;99679.97;6378832;22;20735;-93
2021/01/27 17:09:34;;;;;;;4.07;3.45;;;;;;;5.76;60.61;100086.78;6379221;22;20388;-92
2021/01/27 17:12:35;;;;;;;3.70;3.28;;;;;;;7.33;60.32;100317.28;6356024;22;20063;-93
2021/01/27 17:18:58;;;;;;;3.40;3.10;;;;;;;4.25;59.79;99844.00;6409201;22;20021;-92
2021/01/27 17:21:40;;;;;;;4.15;3.22;;;;;;;5.57;60.32;100049.28;6381837;22;20081;-92
